Time;durP1;ratioP1;P1;durP2;ratioP2;P2;SDS_P1;SDS_P2;PMS_P1;PMS_P2;Temp;Humidity;BMP_temperature;BMP_pressure;BME280_temperature;BME280_humidity;BME280_pressure;Samples;Min_cycle;Max_cycle;Signal;HPM_P1;HPM_P2
2024/01/16 00:02:12;;;;;;;37.83;19.05;;;0.20;99.90;;;;;;5110854;28;20024;-76
2024/01/16 00:04:39;;;;;;;33.50;16.35;;;0.10;99.90;;;;;;5111173;28;20076;-77
2024/01/16 00:07:05;;;;;;;47.17;22.65;;;0.20;99.90;;;;;;5092442;28;20114;-77
2024/01/16 00:09:34;;;;;;;46.22;24.33;;;0.20;99.90;;;;;;5111274;28;20076;-76
2024/01/16 00:12:00;;;;;;;46.45;21.10;;;0.20;99.90;;;;;;5110133;28;20019;-76
2024/01/16 00:14:26;;;;;;;32.75;19.15;;;0.30;99.90;;;;;;5111081;28;20023;-76
2024/01/16 00:16:51;;;;;;;29.67;17.00;;;0.20;99.90;;;;;;5110792;28;20039;-76
2024/01/16 00:19:17;;;;;;;39.45;19.95;;;0.20;99.90;;;;;;5111006;28;20023;-77
2024/01/16 00:21:47;;;;;;;37.20;19.55;;;0.20;99.90;;;;;;5110935;28;20043;-76
2024/01/16 00:24:16;;;;;;;29.58;16.02;;;0.20;99.90;;;;;;5110304;28;20019;-76
2024/01/16 00:26:42;;;;;;;35.25;18.42;;;0.20;99.90;;;;;;5110794;28;20027;-76
2024/01/16 00:29:09;;;;;;;32.58;16.83;;;0.20;99.90;;;;;;5110417;28;20020;-77
2024/01/16 00:31:35;;;;;;;31.23;16.35;;;0.20;99.90;;;;;;5092471;28;20114;-76
2024/01/16 00:34:00;;;;;;;24.05;15.68;;;0.20;99.90;;;;;;5110699;28;20486;-77
2024/01/16 00:36:26;;;;;;;24.00;13.82;;;0.20;99.90;;;;;;5110630;28;20034;-77
2024/01/16 00:38:52;;;;;;;30.67;14.82;;;0.20;99.90;;;;;;5111454;28;20046;-77
2024/01/16 00:41:17;;;;;;;25.35;14.63;;;0.30;99.90;;;;;;5110509;28;20397;-76
2024/01/16 00:43:44;;;;;;;25.52;13.93;;;0.30;99.90;;;;;;5110991;28;20031;-76
2024/01/16 00:46:10;;;;;;;22.10;12.48;;;0.40;99.90;;;;;;5110418;28;20106;-77
2024/01/16 00:48:36;;;;;;;27.17;12.57;;;0.50;99.90;;;;;;5111090;28;20102;-77
2024/01/16 00:51:01;;;;;;;21.58;10.68;;;0.50;99.90;;;;;;5110513;28;20046;-77
2024/01/16 00:53:27;;;;;;;20.10;10.38;;;0.60;99.90;;;;;;5110929;28;20422;-76
2024/01/16 00:55:54;;;;;;;20.52;11.10;;;0.60;99.90;;;;;;5092668;28;20079;-77
2024/01/16 00:58:23;;;;;;;16.13;10.77;;;0.60;99.90;;;;;;5109641;28;20912;-77
2024/01/16 01:00:49;;;;;;;21.38;10.02;;;0.70;99.90;;;;;;5110700;28;20043;-77
2024/01/16 01:03:15;;;;;;;21.02;10.48;;;0.70;99.90;;;;;;5109884;28;20110;-77
2024/01/16 01:05:41;;;;;;;20.67;10.75;;;0.80;99.90;;;;;;5112567;28;20030;-77
2024/01/16 01:08:07;;;;;;;23.05;9.52;;;0.80;99.90;;;;;;5113993;28;20364;-77
2024/01/16 01:10:33;;;;;;;21.45;10.60;;;0.80;99.90;;;;;;5114551;28;20027;-77
2024/01/16 01:12:58;;;;;;;18.67;10.27;;;0.80;99.90;;;;;;5114592;28;20020;-77
2024/01/16 01:15:24;;;;;;;20.70;9.93;;;0.90;99.90;;;;;;5113952;28;20032;-77
2024/01/16 01:17:50;;;;;;;22.17;10.63;;;0.80;99.90;;;;;;5114499;28;20016;-77
2024/01/16 01:20:17;;;;;;;18.27;10.13;;;0.80;99.90;;;;;;5113893;28;20102;-77
2024/01/16 01:22:44;;;;;;;21.70;9.45;;;0.80;99.90;;;;;;5114717;28;20383;-77
2024/01/16 01:25:11;;;;;;;13.05;9.18;;;0.80;99.90;;;;;;5114210;28;20072;-77
2024/01/16 01:27:37;;;;;;;18.90;9.23;;;0.80;99.90;;;;;;5114359;28;20027;-77
2024/01/16 01:30:03;;;;;;;15.75;8.55;;;0.80;99.90;;;;;;5113799;28;20035;-76
2024/01/16 01:32:29;;;;;;;15.02;8.10;;;0.80;99.90;;;;;;5114272;28;20084;-76
2024/01/16 01:34:55;;;;;;;20.52;9.57;;;0.70;99.90;;;;;;5113957;28;20130;-76
2024/01/16 01:37:21;;;;;;;16.05;8.05;;;0.70;99.90;;;;;;5113389;28;20138;-77
2024/01/16 01:39:46;;;;;;;14.02;7.45;;;0.70;99.90;;;;;;5114190;28;20054;-76
2024/01/16 01:42:12;;;;;;;17.40;7.57;;;0.70;99.90;;;;;;5113671;28;20333;-77
2024/01/16 01:44:38;;;;;;;12.27;7.53;;;0.70;99.90;;;;;;5113959;28;20049;-77
2024/01/16 01:47:04;;;;;;;15.48;7.18;;;0.60;99.90;;;;;;5095269;28;20430;-77
2024/01/16 01:49:31;;;;;;;11.57;6.63;;;0.70;99.90;;;;;;5113517;28;20016;-77
2024/01/16 01:51:58;;;;;;;15.38;6.68;;;0.60;99.90;;;;;;5113477;28;20113;-76
2024/01/16 01:54:24;;;;;;;18.38;7.32;;;0.60;99.90;;;;;;5113287;28;20462;-77
2024/01/16 01:56:50;;;;;;;11.98;6.25;;;0.50;99.90;;;;;;5113781;28;20028;-77
2024/01/16 01:59:19;;;;;;;13.73;6.28;;;0.60;99.90;;;;;;5112925;28;20385;-77
2024/01/16 02:01:47;;;;;;;9.98;5.40;;;0.50;99.90;;;;;;5113482;28;20442;-77
2024/01/16 02:04:15;;;;;;;12.40;6.15;;;0.50;99.90;;;;;;5113250;28;20069;-77
2024/01/16 02:06:42;;;;;;;15.50;6.63;;;0.50;99.90;;;;;;5113770;28;20043;-77
2024/01/16 02:09:09;;;;;;;12.30;6.07;;;0.50;99.90;;;;;;5113303;28;20406;-76
2024/01/16 02:11:34;;;;;;;14.93;5.60;;;0.50;99.90;;;;;;5113703;28;20074;-76
2024/01/16 02:14:00;;;;;;;13.43;5.88;;;0.50;99.90;;;;;;5095014;28;20054;-76
2024/01/16 02:16:26;;;;;;;14.00;6.25;;;0.50;99.90;;;;;;5093420;28;20034;-76
2024/01/16 02:18:52;;;;;;;12.48;6.25;;;0.60;99.90;;;;;;5113448;28;20027;-77
2024/01/16 02:21:21;;;;;;;14.32;5.07;;;0.60;99.90;;;;;;5112782;28;20015;-77
2024/01/16 02:23:48;;;;;;;9.95;5.55;;;0.60;99.90;;;;;;5113465;28;20135;-77
2024/01/16 02:26:17;;;;;;;9.60;5.30;;;0.60;99.90;;;;;;5112955;28;20031;-78
2024/01/16 02:28:43;;;;;;;10.57;5.07;;;0.60;99.90;;;;;;5113200;28;20020;-77
2024/01/16 02:31:09;;;;;;;14.15;4.47;;;0.70;99.90;;;;;;5094596;28;20448;-77
2024/01/16 02:33:35;;;;;;;12.45;5.57;;;0.70;99.90;;;;;;5112895;28;20019;-77
2024/01/16 02:36:00;;;;;;;10.80;4.25;;;0.70;99.90;;;;;;5112899;28;20028;-78
2024/01/16 02:38:26;;;;;;;14.45;4.75;;;0.80;99.90;;;;;;5094002;28;20109;-77
2024/01/16 02:40:52;;;;;;;15.70;4.10;;;0.80;99.90;;;;;;5112676;28;20456;-77
2024/01/16 02:43:17;;;;;;;9.18;3.78;;;0.80;99.90;;;;;;5112371;28;20020;-77
2024/01/16 02:45:43;;;;;;;16.10;3.90;;;0.80;99.90;;;;;;5112761;28;20468;-78
2024/01/16 02:48:09;;;;;;;10.98;3.45;;;0.80;99.90;;;;;;5111832;28;20035;-78
2024/01/16 02:50:35;;;;;;;8.65;3.60;;;0.90;99.90;;;;;;5112550;28;20019;-77
2024/01/16 02:53:01;;;;;;;9.05;3.35;;;1.00;99.90;;;;;;5093828;28;20021;-77
2024/01/16 02:55:26;;;;;;;8.23;3.03;;;1.00;99.90;;;;;;5112064;28;20102;-77
2024/01/16 02:57:52;;;;;;;9.30;3.33;;;1.00;99.90;;;;;;5112050;28;20445;-77
2024/01/16 03:00:18;;;;;;;7.25;3.10;;;1.10;99.90;;;;;;5111630;28;20019;-77
2024/01/16 03:02:44;;;;;;;11.40;3.05;;;1.10;99.90;;;;;;5094573;28;20106;-76
2024/01/16 03:05:10;;;;;;;9.27;2.90;;;1.10;99.90;;;;;;5112037;28;20032;-76
2024/01/16 03:07:36;;;;;;;6.65;2.92;;;1.10;99.90;;;;;;5112565;28;20023;-76
2024/01/16 03:10:02;;;;;;;11.65;3.30;;;1.20;99.90;;;;;;5112040;28;20364;-76
2024/01/16 03:12:28;;;;;;;9.48;2.80;;;1.20;99.90;;;;;;5093022;28;20126;-76
2024/01/16 03:14:54;;;;;;;7.07;3.28;;;1.20;99.90;;;;;;5111768;28;20031;-76
2024/01/16 03:17:20;;;;;;;13.60;3.33;;;1.30;99.90;;;;;;5111234;28;20410;-77
2024/01/16 03:19:45;;;;;;;9.88;3.00;;;1.30;99.90;;;;;;5112030;28;20061;-77
2024/01/16 03:22:11;;;;;;;7.50;2.95;;;1.40;99.90;;;;;;5092866;28;20444;-76
2024/01/16 03:24:37;;;;;;;7.60;3.08;;;1.40;99.90;;;;;;5111307;28;20019;-76
2024/01/16 03:27:04;;;;;;;5.55;3.13;;;1.40;99.90;;;;;;5093713;28;20062;-76
2024/01/16 03:29:30;;;;;;;8.40;2.88;;;1.40;99.90;;;;;;5110377;28;20042;-76
2024/01/16 03:31:55;;;;;;;10.60;3.67;;;1.40;99.90;;;;;;5111272;28;20119;-77
2024/01/16 03:34:21;;;;;;;7.13;2.50;;;1.40;99.90;;;;;;5110705;28;20019;-76
2024/01/16 03:36:47;;;;;;;7.68;2.55;;;1.50;99.90;;;;;;5093004;28;20031;-75
2024/01/16 03:39:14;;;;;;;10.02;2.92;;;1.40;99.90;;;;;;5111813;28;20015;-77
2024/01/16 03:41:39;;;;;;;7.60;2.35;;;1.40;99.90;;;;;;5111790;28;20325;-77
2024/01/16 03:44:05;;;;;;;9.07;3.25;;;1.40;99.90;;;;;;5111956;28;20023;-76
2024/01/16 03:46:31;;;;;;;8.35;2.63;;;1.40;99.90;;;;;;5111060;28;20533;-76
2024/01/16 03:48:56;;;;;;;8.95;2.85;;;1.40;99.90;;;;;;5093411;28;20072;-77
2024/01/16 03:51:23;;;;;;;6.85;2.47;;;1.40;99.90;;;;;;5111060;28;20122;-76
2024/01/16 03:53:48;;;;;;;12.10;3.40;;;1.40;99.90;;;;;;5111752;28;20467;-76
2024/01/16 03:56:16;;;;;;;7.72;3.20;;;1.30;99.90;;;;;;5112151;27;20193;-77
2024/01/16 03:58:42;;;;;;;6.47;2.30;;;1.30;99.90;;;;;;5131977;27;20074;-76
2024/01/16 04:01:08;;;;;;;6.68;2.70;;;1.20;99.90;;;;;;5131896;27;20023;-76
2024/01/16 04:03:34;;;;;;;8.98;2.70;;;1.30;99.90;;;;;;5131322;27;20087;-76
2024/01/16 04:06:00;;;;;;;7.50;2.92;;;1.30;99.90;;;;;;5131760;27;20045;-76
2024/01/16 04:08:26;;;;;;;12.02;2.83;;;1.20;99.90;;;;;;5131096;27;20015;-76
2024/01/16 04:10:52;;;;;;;11.20;3.17;;;1.20;99.90;;;;;;5131504;27;20038;-76
2024/01/16 04:13:18;;;;;;;7.57;2.75;;;1.20;99.90;;;;;;5112653;27;20027;-76
2024/01/16 04:15:43;;;;;;;7.25;2.63;;;1.20;99.90;;;;;;5131231;27;20127;-76
2024/01/16 04:18:09;;;;;;;12.73;2.75;;;1.20;99.90;;;;;;5131553;27;20027;-76
2024/01/16 04:20:35;;;;;;;7.50;2.38;;;1.10;99.90;;;;;;5130928;27;20079;-76
2024/01/16 04:23:01;;;;;;;7.45;2.63;;;1.10;99.90;;;;;;5131531;27;20045;-76
2024/01/16 04:25:27;;;;;;;11.88;3.60;;;1.20;99.90;;;;;;5131163;27;20076;-78
2024/01/16 04:27:53;;;;;;;11.38;3.10;;;1.10;99.90;;;;;;5113153;28;20109;-75
2024/01/16 04:30:20;;;;;;;7.97;3.22;;;1.10;99.90;;;;;;5130390;28;20027;-75
2024/01/16 04:32:46;;;;;;;7.18;2.72;;;1.20;99.90;;;;;;5131641;28;20102;-78
2024/01/16 04:35:11;;;;;;;7.55;3.20;;;1.10;99.90;;;;;;5131488;28;20043;-75
2024/01/16 04:37:37;;;;;;;9.85;3.75;;;1.10;99.90;;;;;;5131169;28;20015;-78
2024/01/16 04:40:05;;;;;;;10.82;2.63;;;1.10;99.90;;;;;;5132639;27;20389;-78
2024/01/16 04:42:31;;;;;;;7.50;2.72;;;1.20;99.90;;;;;;5134872;27;20106;-76
2024/01/16 04:44:56;;;;;;;7.55;2.55;;;1.20;99.90;;;;;;5135148;27;20102;-76
2024/01/16 04:47:22;;;;;;;13.60;2.80;;;1.20;99.90;;;;;;5116393;27;20354;-76
2024/01/16 04:49:48;;;;;;;9.65;2.50;;;1.10;99.90;;;;;;5134912;27;20227;-76
2024/01/16 04:52:14;;;;;;;6.57;2.35;;;1.20;99.90;;;;;;5134963;27;20336;-76
2024/01/16 04:54:39;;;;;;;11.93;2.85;;;1.10;99.90;;;;;;5134656;27;20019;-76
2024/01/16 04:57:05;;;;;;;11.15;2.55;;;1.10;99.90;;;;;;5134629;27;20183;-76
2024/01/16 04:59:31;;;;;;;10.48;2.78;;;1.10;99.90;;;;;;5116233;27;20026;-76
2024/01/16 05:01:56;;;;;;;9.05;2.30;;;1.10;99.90;;;;;;5134943;27;20022;-78
2024/01/16 05:04:22;;;;;;;8.80;2.45;;;1.10;99.90;;;;;;5134711;27;20100;-77
2024/01/16 05:06:51;;;;;;;10.98;2.65;;;1.00;99.90;;;;;;5135181;27;20027;-77
2024/01/16 05:09:19;;;;;;;7.28;2.38;;;1.10;99.90;;;;;;5134787;27;20023;-77
2024/01/16 05:11:45;;;;;;;5.53;2.15;;;1.10;99.90;;;;;;5116106;27;20027;-77
2024/01/16 05:14:11;;;;;;;6.63;1.92;;;1.10;99.90;;;;;;5134861;27;20023;-78
2024/01/16 05:16:36;;;;;;;10.18;2.03;;;1.10;99.90;;;;;;5133960;27;20955;-77
2024/01/16 05:19:02;;;;;;;3.83;1.92;;;1.10;99.90;;;;;;5134821;27;20041;-78
2024/01/16 05:21:28;;;;;;;6.47;2.00;;;1.10;99.90;;;;;;5133787;27;20027;-77
2024/01/16 05:23:54;;;;;;;7.68;2.80;;;1.20;99.90;;;;;;5116231;27;20015;-77
2024/01/16 05:26:20;;;;;;;6.30;2.00;;;1.20;99.90;;;;;;5134192;27;20477;-77
2024/01/16 05:28:45;;;;;;;4.18;2.10;;;1.30;99.90;;;;;;5134664;27;20027;-78
2024/01/16 05:31:11;;;;;;;5.15;2.33;;;1.30;99.90;;;;;;5133774;27;20367;-77
2024/01/16 05:33:37;;;;;;;6.32;1.90;;;1.30;99.90;;;;;;5133933;27;20038;-77
2024/01/16 05:36:03;;;;;;;8.30;1.95;;;1.30;99.90;;;;;;5134146;27;20019;-77
2024/01/16 05:38:28;;;;;;;6.25;2.10;;;1.30;99.90;;;;;;5134045;27;20041;-78
2024/01/16 05:40:54;;;;;;;10.43;2.35;;;1.30;99.90;;;;;;5134744;27;20216;-77
2024/01/16 05:43:20;;;;;;;3.42;1.65;;;1.40;99.90;;;;;;5116073;27;20427;-77
2024/01/16 05:45:45;;;;;;;5.68;1.98;;;1.30;99.90;;;;;;5134623;27;20098;-77
2024/01/16 05:48:11;;;;;;;6.75;1.60;;;1.30;99.90;;;;;;5116156;27;20043;-77
2024/01/16 05:50:37;;;;;;;9.20;1.92;;;1.30;99.90;;;;;;5133680;27;20110;-78
2024/01/16 05:53:03;;;;;;;9.15;2.53;;;1.30;99.90;;;;;;5134523;27;20405;-78
2024/01/16 05:55:32;;;;;;;4.95;2.25;;;1.30;99.90;;;;;;5133809;27;20084;-78
2024/01/16 05:58:01;;;;;;;11.60;2.05;;;1.30;99.90;;;;;;5134808;27;20047;-77
2024/01/16 06:00:27;;;;;;;7.72;2.55;;;1.40;99.90;;;;;;5134345;27;20015;-78
2024/01/16 06:02:52;;;;;;;7.28;2.17;;;1.40;99.90;;;;;;5134697;27;20138;-77
2024/01/16 06:05:18;;;;;;;5.30;2.20;;;1.30;99.90;;;;;;5134811;27;20214;-77
2024/01/16 06:07:44;;;;;;;8.32;2.25;;;1.30;99.90;;;;;;5133784;27;20413;-78
2024/01/16 06:10:13;;;;;;;9.25;2.45;;;1.30;99.90;;;;;;5134190;27;20015;-77
2024/01/16 06:12:39;;;;;;;6.95;2.70;;;1.30;99.90;;;;;;5133170;27;20297;-78
2024/01/16 06:15:05;;;;;;;7.32;2.42;;;1.30;99.90;;;;;;5134026;27;20038;-78
2024/01/16 06:17:32;;;;;;;11.75;2.50;;;1.30;99.90;;;;;;5133138;27;20106;-78
2024/01/16 06:19:57;;;;;;;6.53;2.30;;;1.30;99.90;;;;;;5134005;27;20341;-77
2024/01/16 06:22:23;;;;;;;7.25;2.20;;;1.30;99.90;;;;;;5133112;27;20023;-78
2024/01/16 06:24:49;;;;;;;6.35;1.75;;;1.30;99.90;;;;;;5133875;27;20049;-77
2024/01/16 06:27:18;;;;;;;8.57;2.05;;;1.30;99.90;;;;;;5133362;27;20023;-77
2024/01/16 06:29:48;;;;;;;5.30;1.75;;;1.30;99.90;;;;;;5133179;27;20034;-78
2024/01/16 06:32:14;;;;;;;3.78;1.83;;;1.30;99.90;;;;;;5114879;27;20030;-77
2024/01/16 06:34:40;;;;;;;6.93;2.60;;;1.30;99.90;;;;;;5133095;27;20098;-76
2024/01/16 06:37:06;;;;;;;8.65;1.95;;;1.30;99.90;;;;;;5097332;28;20431;-77
2024/01/16 06:39:31;;;;;;;8.30;2.20;;;1.20;99.90;;;;;;5112752;28;20035;-78
2024/01/16 06:41:57;;;;;;;4.55;1.77;;;1.20;99.90;;;;;;5112812;28;20119;-76
2024/01/16 06:44:23;;;;;;;4.30;2.22;;;1.20;99.90;;;;;;5112873;28;20024;-76
2024/01/16 06:46:48;;;;;;;6.85;1.98;;;1.20;99.90;;;;;;5112127;28;20368;-76
2024/01/16 06:49:14;;;;;;;3.17;1.63;;;1.30;99.90;;;;;;5112383;28;20448;-76
2024/01/16 06:51:40;;;;;;;7.80;2.40;;;1.30;99.90;;;;;;5093109;28;20089;-76
2024/01/16 06:54:05;;;;;;;4.22;1.90;;;1.20;99.90;;;;;;5112147;28;20016;-76
2024/01/16 06:56:32;;;;;;;3.00;1.85;;;1.20;99.90;;;;;;5111636;28;20024;-77
2024/01/16 06:58:57;;;;;;;4.90;1.80;;;1.20;99.90;;;;;;5112578;28;20500;-77
2024/01/16 07:01:23;;;;;;;6.95;2.38;;;1.20;99.90;;;;;;5094055;28;20110;-77
2024/01/16 07:03:49;;;;;;;8.73;1.48;;;1.20;99.90;;;;;;5111324;28;20429;-77
2024/01/16 07:06:14;;;;;;;5.78;1.75;;;1.20;99.90;;;;;;5112640;28;20188;-77
2024/01/16 07:08:40;;;;;;;3.70;1.67;;;1.20;99.90;;;;;;5111381;28;20019;-77
2024/01/16 07:11:08;;;;;;;6.40;1.67;;;1.20;99.90;;;;;;5111995;28;20025;-77
2024/01/16 07:13:34;;;;;;;5.05;1.80;;;1.20;99.90;;;;;;5111483;28;20105;-77
2024/01/16 07:16:00;;;;;;;9.10;2.00;;;1.20;99.90;;;;;;5077215;28;20039;-77
2024/01/16 07:18:28;;;;;;;5.13;1.70;;;1.20;99.90;;;;;;5111591;28;20019;-77
2024/01/16 07:20:54;;;;;;;8.85;1.90;;;1.20;99.90;;;;;;5112067;28;20325;-77
2024/01/16 07:23:19;;;;;;;5.88;1.65;;;1.20;99.90;;;;;;5111766;28;20031;-77
2024/01/16 07:25:45;;;;;;;4.70;1.77;;;1.10;99.90;;;;;;5111412;28;20050;-77
2024/01/16 07:28:11;;;;;;;4.60;2.03;;;1.10;99.90;;;;;;5112126;28;20092;-77
2024/01/16 07:30:36;;;;;;;5.32;2.25;;;1.10;99.90;;;;;;5112947;27;20027;-77
2024/01/16 07:33:03;;;;;;;6.78;2.03;;;1.10;99.90;;;;;;5131987;27;20049;-77
2024/01/16 07:35:29;;;;;;;6.35;1.85;;;1.10;99.90;;;;;;5131314;27;20046;-77
2024/01/16 07:37:54;;;;;;;6.63;2.35;;;1.10;99.90;;;;;;5132092;27;20015;-77
2024/01/16 07:40:20;;;;;;;7.70;1.70;;;1.20;99.90;;;;;;5132962;27;20035;-77
2024/01/16 07:42:46;;;;;;;8.02;1.65;;;1.20;99.90;;;;;;5132009;27;20679;-77
2024/01/16 07:45:12;;;;;;;6.85;2.03;;;1.20;99.90;;;;;;5132506;27;20046;-77
2024/01/16 07:47:37;;;;;;;4.35;1.77;;;1.10;99.90;;;;;;5131482;27;20301;-77
2024/01/16 07:50:04;;;;;;;5.65;1.52;;;1.20;99.90;;;;;;5132420;27;20019;-79
2024/01/16 07:52:30;;;;;;;5.53;1.63;;;1.20;99.90;;;;;;5131557;27;20023;-77
2024/01/16 07:54:56;;;;;;;7.18;1.83;;;1.20;99.90;;;;;;5131801;27;20077;-79
2024/01/16 07:57:21;;;;;;;5.85;1.88;;;1.30;99.90;;;;;;5132285;27;20091;-78
2024/01/16 07:59:47;;;;;;;7.93;1.67;;;1.20;99.90;;;;;;5113280;27;20667;-78
2024/01/16 08:02:13;;;;;;;7.70;2.67;;;1.30;99.90;;;;;;5132105;27;20120;-78
2024/01/16 08:04:39;;;;;;;5.93;1.50;;;1.30;99.90;;;;;;5131644;27;20054;-78
2024/01/16 08:07:04;;;;;;;3.92;1.50;;;1.40;99.90;;;;;;5132240;27;20068;-78
2024/01/16 08:09:30;;;;;;;3.38;1.17;;;1.40;99.90;;;;;;5131264;27;20108;-78
2024/01/16 08:11:56;;;;;;;6.25;1.42;;;1.40;99.90;;;;;;5131880;27;20029;-78
2024/01/16 08:14:22;;;;;;;5.60;1.10;;;1.40;99.90;;;;;;5131123;27;20019;-78
2024/01/16 08:16:48;;;;;;;3.30;1.33;;;1.40;99.90;;;;;;5131343;27;20098;-78
2024/01/16 08:19:14;;;;;;;3.92;1.30;;;1.40;99.90;;;;;;5132143;27;20068;-78
2024/01/16 08:21:40;;;;;;;3.00;1.13;;;1.40;99.90;;;;;;5131734;27;20049;-78
2024/01/16 08:24:06;;;;;;;6.38;1.70;;;1.50;99.90;;;;;;5112887;27;20397;-78
2024/01/16 08:26:32;;;;;;;7.88;1.98;;;1.50;99.90;;;;;;5131533;27;20125;-78
2024/01/16 08:28:58;;;;;;;5.85;1.67;;;1.50;99.90;;;;;;5132070;28;20027;-78
2024/01/16 08:31:23;;;;;;;6.38;1.90;;;1.50;99.90;;;;;;5131568;28;20098;-78
2024/01/16 08:33:49;;;;;;;4.28;1.45;;;1.60;99.90;;;;;;5124844;28;20469;-78
2024/01/16 08:36:15;;;;;;;2.50;1.30;;;1.70;99.90;;;;;;5120395;28;20023;-78
2024/01/16 08:38:41;;;;;;;3.55;1.60;;;1.70;99.90;;;;;;5119582;28;20042;-78
2024/01/16 08:41:07;;;;;;;2.85;1.30;;;1.80;99.90;;;;;;5119892;28;20310;-78
2024/01/16 08:43:33;;;;;;;4.68;1.40;;;1.90;99.90;;;;;;5122615;27;20031;-79
2024/01/16 08:45:59;;;;;;;7.57;1.55;;;1.90;99.90;;;;;;5101770;28;20023;-78
2024/01/16 08:48:25;;;;;;;3.15;1.98;;;1.90;99.90;;;;;;5121492;28;20098;-79
2024/01/16 08:50:51;;;;;;;6.90;2.03;;;1.90;99.90;;;;;;5121247;28;20088;-78
2024/01/16 08:53:17;;;;;;;4.25;1.42;;;1.90;99.90;;;;;;5092479;28;20046;-78
2024/01/16 08:55:43;;;;;;;5.18;1.40;;;2.00;99.90;;;;;;5110435;28;20039;-78
2024/01/16 08:58:08;;;;;;;4.30;1.60;;;2.00;99.90;;;;;;5111226;28;20051;-78
2024/01/16 09:00:34;;;;;;;6.22;1.60;;;2.10;99.90;;;;;;5110104;28;20028;-78
2024/01/16 09:03:01;;;;;;;3.30;1.30;;;2.20;99.90;;;;;;5094250;28;20108;-78
2024/01/16 09:05:27;;;;;;;2.85;1.52;;;2.20;99.90;;;;;;5110644;28;20042;-78
2024/01/16 09:07:53;;;;;;;7.80;1.60;;;2.20;99.90;;;;;;5110058;28;20020;-79
2024/01/16 09:10:19;;;;;;;5.03;1.90;;;2.30;99.90;;;;;;5075435;28;20030;-78
2024/01/16 09:12:45;;;;;;;2.88;1.30;;;2.30;99.90;;;;;;5109865;28;20100;-78
2024/01/16 09:15:11;;;;;;;5.93;1.00;;;2.30;99.90;;;;;;5110599;28;20059;-77
2024/01/16 09:17:37;;;;;;;6.05;1.48;;;2.30;99.90;;;;;;5110300;28;20051;-78
2024/01/16 09:20:02;;;;;;;3.17;1.80;;;2.40;99.90;;;;;;5111011;28;20019;-78
2024/01/16 09:22:28;;;;;;;8.25;1.38;;;2.40;99.90;;;;;;5111330;28;20046;-78
2024/01/16 09:24:54;;;;;;;4.63;1.58;;;2.30;99.90;;;;;;5110341;28;20058;-78
2024/01/16 09:27:20;;;;;;;8.10;1.85;;;2.30;99.90;;;;;;5113524;28;20030;-78
2024/01/16 09:29:45;;;;;;;4.28;1.30;;;2.30;99.90;;;;;;5095383;27;20068;-79
2024/01/16 09:32:11;;;;;;;6.22;1.35;;;2.30;99.90;;;;;;5124268;27;20071;-78
2024/01/16 09:34:37;;;;;;;9.95;1.40;;;2.30;99.90;;;;;;5131407;27;20026;-78
2024/01/16 09:37:03;;;;;;;9.70;1.60;;;2.30;99.90;;;;;;5134059;27;20023;-78
2024/01/16 09:39:34;;;;;;;3.05;1.30;;;2.30;99.90;;;;;;5134415;27;20023;-78
2024/01/16 09:42:03;;;;;;;9.88;1.45;;;2.40;99.90;;;;;;5134174;27;20056;-78
2024/01/16 09:44:29;;;;;;;5.63;1.60;;;2.40;99.90;;;;;;5134480;27;20015;-78
2024/01/16 09:46:57;;;;;;;8.65;2.00;;;2.40;99.90;;;;;;5134068;27;20038;-78
2024/01/16 09:49:23;;;;;;;8.13;1.90;;;2.30;99.90;;;;;;5134860;27;20015;-78
2024/01/16 09:51:49;;;;;;;11.95;2.03;;;2.30;99.90;;;;;;5133902;27;20452;-78
2024/01/16 09:54:15;;;;;;;7.85;1.70;;;2.30;99.90;;;;;;5134493;27;20033;-78
2024/01/16 09:56:45;;;;;;;5.93;1.70;;;2.40;99.90;;;;;;5133583;27;20031;-78
2024/01/16 09:59:16;;;;;;;5.30;1.58;;;2.30;99.90;;;;;;5134312;27;20051;-78
2024/01/16 10:01:43;;;;;;;3.30;1.40;;;2.30;99.90;;;;;;5133704;27;20171;-78
2024/01/16 10:04:09;;;;;;;10.57;1.85;;;2.30;99.90;;;;;;5134281;27;20339;-78
2024/01/16 10:06:39;;;;;;;4.78;1.77;;;2.30;99.90;;;;;;5133901;27;20027;-78
2024/01/16 10:09:06;;;;;;;6.30;2.47;;;2.20;99.90;;;;;;5134047;27;20368;-77
2024/01/16 10:11:34;;;;;;;8.40;2.30;;;2.20;99.90;;;;;;5134179;27;20015;-78
2024/01/16 10:14:01;;;;;;;6.63;2.05;;;2.20;99.90;;;;;;5133248;27;20042;-78
2024/01/16 10:16:59;;;;;;;6.13;1.70;;;2.20;99.90;;;;;;5133801;27;20439;-78
2024/01/16 10:19:29;;;;;;;5.80;1.48;;;2.20;99.90;;;;;;5133953;27;20062;-77
2024/01/16 10:22:03;;;;;;;2.97;1.33;;;2.30;99.90;;;;;;5133396;27;20026;-78
2024/01/16 10:24:29;;;;;;;5.30;1.77;;;2.30;99.90;;;;;;5134049;27;20410;-79
2024/01/16 10:27:00;;;;;;;4.65;1.83;;;2.30;99.90;;;;;;5114745;27;20031;-78
2024/01/16 10:29:26;;;;;;;8.68;2.75;;;2.30;99.90;;;;;;5127463;27;20397;-77
2024/01/16 10:31:52;;;;;;;7.65;2.00;;;2.30;99.90;;;;;;5120411;27;20344;-78
2024/01/16 10:34:22;;;;;;;7.30;2.20;;;2.20;99.90;;;;;;5123780;27;20019;-78
2024/01/16 10:37:03;;;;;;;7.20;2.00;;;2.20;99.90;;;;;;5120228;27;20023;-77
2024/01/16 10:39:29;;;;;;;8.20;2.13;;;2.30;99.90;;;;;;5124411;27;20475;-78
2024/01/16 10:41:59;;;;;;;7.95;2.45;;;2.30;99.90;;;;;;5133157;27;20136;-78
2024/01/16 10:44:25;;;;;;;9.27;2.25;;;2.30;99.90;;;;;;5105056;27;20463;-78
2024/01/16 10:46:51;;;;;;;8.82;1.92;;;2.30;99.90;;;;;;5121612;27;20028;-78
2024/01/16 10:49:17;;;;;;;6.32;1.65;;;2.30;99.90;;;;;;5118981;27;20412;-75
2024/01/16 10:51:45;;;;;;;7.85;1.85;;;2.40;99.90;;;;;;5132280;27;20080;-78
2024/01/16 10:54:14;;;;;;;9.60;2.03;;;2.30;99.90;;;;;;5133428;27;20477;-78
2024/01/16 10:56:46;;;;;;;5.32;1.50;;;2.40;99.90;;;;;;5132992;27;20038;-78
2024/01/16 10:59:37;;;;;;;2.95;1.30;;;2.40;99.90;;;;;;5133105;27;20424;-78
2024/01/16 11:02:05;;;;;;;3.72;1.65;;;2.50;99.90;;;;;;5132976;27;20061;-77
2024/01/16 11:04:32;;;;;;;5.28;2.58;;;2.50;99.90;;;;;;5133279;27;20011;-77
2024/01/16 11:06:58;;;;;;;5.38;1.63;;;2.50;99.90;;;;;;5132286;27;20034;-77
2024/01/16 11:09:24;;;;;;;8.38;2.58;;;2.50;99.90;;;;;;5133022;27;20019;-77
2024/01/16 11:11:53;;;;;;;10.88;3.95;;;2.60;99.90;;;;;;5132438;27;20468;-78
2024/01/16 11:14:22;;;;;;;6.85;2.60;;;2.60;99.90;;;;;;5133000;27;20585;-77
2024/01/16 11:16:49;;;;;;;6.18;2.08;;;2.60;99.90;;;;;;5113513;27;20111;-77
2024/01/16 11:19:17;;;;;;;3.65;2.10;;;2.60;99.90;;;;;;5114503;27;20424;-77
2024/01/16 11:21:44;;;;;;;6.70;2.40;;;2.70;99.90;;;;;;5132234;27;20034;-78
2024/01/16 11:24:11;;;;;;;4.68;2.47;;;2.70;99.90;;;;;;5132814;27;20468;-77
2024/01/16 11:26:40;;;;;;;3.70;1.70;;;2.70;99.90;;;;;;5132916;27;20019;-77
2024/01/16 11:29:27;;;;;;;6.50;1.80;;;2.70;99.90;;;;;;5132112;27;20014;-77
2024/01/16 11:31:58;;;;;;;4.57;1.75;;;2.70;99.90;;;;;;5132273;27;20127;-77
2024/01/16 11:34:42;;;;;;;5.38;1.45;;;2.80;99.90;;;;;;5132995;27;20030;-78
2024/01/16 11:37:09;;;;;;;8.27;1.50;;;2.90;99.90;;;;;;5132353;27;20108;-77
2024/01/16 11:39:35;;;;;;;8.80;1.35;;;2.90;99.90;;;;;;5132545;27;20019;-77
2024/01/16 11:42:04;;;;;;;4.90;1.25;;;3.00;99.90;;;;;;5132143;27;20120;-77
2024/01/16 11:44:54;;;;;;;3.83;1.33;;;3.00;99.90;;;;;;5132624;27;20015;-77
2024/01/16 11:47:20;;;;;;;9.82;2.25;;;3.10;99.90;;;;;;5132426;27;20030;-77
2024/01/16 11:49:47;;;;;;;6.53;1.23;;;3.10;99.90;;;;;;5131768;27;20023;-77
2024/01/16 11:52:13;;;;;;;3.55;1.38;;;3.10;99.90;;;;;;5132041;27;20050;-77
2024/01/16 11:54:42;;;;;;;4.35;1.60;;;3.20;99.90;;;;;;5132660;27;20027;-77
2024/01/16 11:57:11;;;;;;;4.07;1.90;;;3.20;99.90;;;;;;5131710;27;20107;-77
2024/01/16 12:00:00;;;;;;;8.40;1.65;;;3.20;99.90;;;;;;5132380;27;20122;-77
2024/01/16 12:02:51;;;;;;;4.32;1.40;;;3.40;99.90;;;;;;5120703;27;20348;-77
2024/01/16 12:05:17;;;;;;;4.30;1.35;;;3.50;99.90;;;;;;5122485;27;20043;-77
2024/01/16 12:07:49;;;;;;;4.97;1.52;;;3.60;99.90;;;;;;5132171;27;20069;-77
2024/01/16 12:10:16;;;;;;;5.00;1.40;;;3.60;99.90;;;;;;5132692;27;20025;-77
2024/01/16 12:12:42;;;;;;;3.10;1.30;;;3.70;99.90;;;;;;5132409;27;20042;-77
2024/01/16 12:15:16;;;;;;;4.93;2.00;;;3.80;99.90;;;;;;5131173;27;20064;-77
2024/01/16 12:18:01;;;;;;;20.00;2.13;;;3.90;99.90;;;;;;5131406;27;20033;-78
2024/01/16 12:20:29;;;;;;;6.07;1.60;;;3.90;99.90;;;;;;5131756;27;20019;-77
2024/01/16 12:23:03;;;;;;;4.70;1.50;;;3.90;99.90;;;;;;5130886;27;20020;-79
2024/01/16 12:25:31;;;;;;;6.10;1.48;;;4.00;99.90;;;;;;5132092;27;20034;-78
2024/01/16 12:28:05;;;;;;;5.88;1.38;;;4.00;99.90;;;;;;5131467;27;20019;-78
2024/01/16 12:30:31;;;;;;;4.22;1.23;;;4.00;99.90;;;;;;5131904;27;20027;-78
2024/01/16 12:33:10;;;;;;;3.45;1.60;;;4.00;99.90;;;;;;5131476;28;20050;-79
2024/01/16 12:35:45;;;;;;;5.32;1.80;;;4.00;99.90;;;;;;5131386;28;20058;-78
2024/01/16 12:38:12;;;;;;;5.40;1.23;;;4.10;99.90;;;;;;5130757;28;20028;-77
2024/01/16 12:40:52;;;;;;;2.88;1.48;;;4.10;99.90;;;;;;5131995;28;20114;-76
2024/01/16 12:43:18;;;;;;;4.30;1.58;;;4.10;99.90;;;;;;5131914;28;20359;-76
2024/01/16 12:45:45;;;;;;;2.85;1.25;;;4.20;99.90;;;;;;5131408;28;20096;-76
2024/01/16 12:48:11;;;;;;;4.95;1.30;;;4.20;99.90;;;;;;5131162;28;20367;-77
2024/01/16 12:50:37;;;;;;;2.90;1.38;;;4.20;99.90;;;;;;5131693;28;20039;-77
2024/01/16 12:53:07;;;;;;;6.00;1.38;;;4.20;99.90;;;;;;5130584;28;20462;-76